Latest Weather Observations for Warburto Point

IDS60801

Issued at 2:02 pm CST Sunday 26 April 2015 (issued every 30 minutes, with the page automatically refreshed every 10 minutes)

About weather observations | Map of weather stations | Latest weather observations for SA | Other Formats
Station Details ID: 022053 Name: WARBURTO POINT Lat: -34.00 Lon: 137.53 Height: 1.0 m
Data from the previous 72 hours. | See also: Recent months for locations in South Australia
Date/Time
CST
Temp
°C
App
Temp
°C
Dew
Point
Rel
Hum
%
Delta-T
°C
Wind Press
QNH
hPa
Press
MSL
hPa
Rain
since 9 am
mm
Dir
 
Spd
km/h
Gust
km/h
Spd
kts
Gust
kts
26/02:00pm - - - - - SSW 28 35 15 19 - - -
26/01:30pm - - - - - SSW 30 35 16 19 - - -
26/01:00pm - - - - - SSW 32 39 17 21 - - -
26/12:30pm - - - - - SSW 28 35 15 19 - - -
26/12:00pm - - - - - SSW 24 33 13 18 - - -
26/11:30am - - - - - SSW 24 30 13 16 - - -
26/11:00am - - - - - S 24 30 13 16 - - -
26/10:30am - - - - - S 22 28 12 15 - - -
26/10:00am - - - - - S 24 30 13 16 - - -
26/09:30am - - - - - S 22 28 12 15 - - -
26/09:00am - - - - - S 22 28 12 15 - - -
26/08:30am - - - - - SSE 20 26 11 14 - - -
26/08:00am - - - - - S 20 26 11 14 - - -
26/07:30am - - - - - S 19 26 10 14 - - -
26/07:00am - - - - - SSE 15 19 8 10 - - -
26/06:30am - - - - - S 17 22 9 12 - - -
26/06:00am - - - - - S 17 20 9 11 - - -
26/05:30am - - - - - SSE 19 24 10 13 - - -
26/05:00am - - - - - S 19 24 10 13 - - -
26/04:30am - - - - - S 20 26 11 14 - - -
26/04:00am - - - - - S 20 30 11 16 - - -
26/03:30am - - - - - S 22 33 12 18 - - -
26/03:00am - - - - - S 19 26 10 14 - - -
26/02:30am - - - - - SSE 15 19 8 10 - - -
26/02:00am - - - - - SSE 20 30 11 16 - - -
26/01:30am - - - - - S 20 26 11 14 - - -
26/01:00am - - - - - S 24 30 13 16 - - -
26/12:30am - - - - - S 26 30 14 16 - - -
26/12:00am - - - - - S 26 32 14 17 - - -
 
Date/Time
CST
Temp
°C
App
Temp
°C
Dew
Point
Rel
Hum
%
Delta-T
°C
Wind Press
QNH
hPa
Press
MSL
hPa
Rain
since 9 am
mm
Dir
 
Spd
km/h
Gust
km/h
Spd
kts
Gust
kts
25/11:30pm - - - - - S 26 35 14 19 - - -
25/11:00pm - - - - - SSE 26 30 14 16 - - -
25/10:30pm - - - - - S 24 32 13 17 - - -
25/10:00pm - - - - - S 26 33 14 18 - - -
25/09:30pm - - - - - SSE 28 35 15 19 - - -
25/09:00pm - - - - - SSE 28 35 15 19 - - -
25/08:30pm - - - - - S 32 37 17 20 - - -
25/08:00pm - - - - - S 33 41 18 22 - - -
25/07:30pm - - - - - S 33 41 18 22 - - -
25/07:00pm - - - - - S 33 43 18 23 - - -
25/06:30pm - - - - - S 35 44 19 24 - - -
25/06:00pm - - - - - S 39 48 21 26 - - -
25/05:30pm - - - - - S 35 43 19 23 - - -
25/05:00pm - - - - - SSW 30 37 16 20 - - -
25/04:30pm - - - - - SSW 30 37 16 20 - - -
25/04:00pm - - - - - S 37 50 20 27 - - -
25/03:47pm - - - - - SSW 33 56 18 30 - - -
25/03:30pm - - - - - SSW 33 44 18 24 - - -
25/03:00pm - - - - - SW 30 39 16 21 - - -
25/02:30pm - - - - - SSW 28 37 15 20 - - -
25/02:00pm - - - - - SW 28 35 15 19 - - -
25/01:30pm - - - - - SSW 28 35 15 19 - - -
25/01:00pm - - - - - SW 24 32 13 17 - - -
25/12:30pm - - - - - SW 28 35 15 19 - - -
25/12:00pm - - - - - SSW 28 35 15 19 - - -
25/11:30am - - - - - SSW 26 32 14 17 - - -
25/11:00am - - - - - SSW 32 39 17 21 - - -
25/10:30am - - - - - SSW 30 37 16 20 - - -
25/10:00am - - - - - SSW 33 39 18 21 - - -
25/09:30am - - - - - S 32 37 17 20 - - -
25/09:00am - - - - - S 33 41 18 22 - - -
25/08:30am - - - - - S 32 39 17 21 - - -
25/08:00am - - - - - SSW 33 43 18 23 - - -
25/07:30am - - - - - S 37 48 20 26 - - -
25/07:00am - - - - - SSW 37 48 20 26 - - -
25/06:30am - - - - - SSW 41 54 22 29 - - -
25/06:00am - - - - - SSW 43 54 23 29 - - -
25/05:30am - - - - - SSW 46 57 25 31 - - -
25/05:00am - - - - - SSW 46 59 25 32 - - -
25/04:30am - - - - - SSW 48 59 26 32 - - -
25/04:00am - - - - - SSW 52 63 28 34 - - -
25/03:30am - - - - - SSW 52 65 28 35 - - -
25/03:00am - - - - - SSW 54 70 29 38 - - -
25/02:31am - - - - - SSW 50 69 27 37 - - -
25/02:30am - - - - - SSW 52 69 28 37 - - -
25/02:03am - - - - - SSW 44 63 24 34 - - -
25/02:00am - - - - - SSW 48 63 26 34 - - -
25/01:32am - - - - - SSW 52 70 28 38 - - -
25/01:30am - - - - - SW 52 69 28 37 - - -
25/01:00am - - - - - SW 52 70 28 38 - - -
25/12:44am - - - - - WSW 43 61 23 33 - - -
25/12:30am - - - - - WSW 39 56 21 30 - - -
25/12:03am - - - - - WSW 48 67 26 36 - - -
25/12:00am - - - - - WSW 50 67 27 36 - - -
 
Date/Time
CST
Temp
°C
App
Temp
°C
Dew
Point
Rel
Hum
%
Delta-T
°C
Wind Press
QNH
hPa
Press
MSL
hPa
Rain
since 9 am
mm
Dir
 
Spd
km/h
Gust
km/h
Spd
kts
Gust
kts
24/11:37pm - - - - - W 56 74 30 40 - - -
24/11:30pm - - - - - W 57 74 31 40 - - -
24/11:00pm - - - - - W 48 69 26 37 - - -
24/10:38pm - - - - - W 41 63 22 34 - - -
24/10:30pm - - - - - W 46 57 25 31 - - -
24/10:00pm - - - - - WSW 43 56 23 30 - - -
24/09:50pm - - - - - W 39 50 21 27 - - -
24/09:30pm - - - - - WNW 54 70 29 38 - - -
24/09:00pm - - - - - WNW 67 89 36 48 - - -
24/08:32pm - - - - - WNW 59 78 32 42 - - -
24/08:30pm - - - - - WNW 59 76 32 41 - - -
24/08:00pm - - - - - WNW 59 78 32 42 - - -
24/07:30pm - - - - - WNW 57 78 31 42 - - -
24/07:00pm - - - - - WNW 48 70 26 38 - - -
24/06:52pm - - - - - WNW 48 70 26 38 - - -
24/06:30pm - - - - - WNW 52 63 28 34 - - -
24/06:00pm - - - - - WNW 46 61 25 33 - - -
24/05:45pm - - - - - W 56 76 30 41 - - -
24/05:40pm - - - - - WNW 50 76 27 41 - - -
24/05:38pm - - - - - WNW 46 74 25 40 - - -
24/05:30pm - - - - - WNW 44 59 24 32 - - -
24/05:00pm - - - - - WNW 37 48 20 26 - - -
24/04:54pm - - - - - WNW 39 57 21 31 - - -
24/04:30pm - - - - - W 39 50 21 27 - - -
24/04:00pm - - - - - W 37 50 20 27 - - -
24/03:30pm - - - - - W 39 52 21 28 - - -
24/03:00pm - - - - - W 37 48 20 26 - - -
24/02:30pm - - - - - W 35 48 19 26 - - -
24/02:00pm - - - - - WSW 33 43 18 23 - - -
24/01:30pm - - - - - WSW 35 48 19 26 - - -
24/01:00pm - - - - - WSW 46 67 25 36 - - -
24/12:52pm - - - - - WSW 43 67 23 36 - - -
24/12:30pm - - - - - W 39 52 21 28 - - -
24/12:00pm - - - - - WSW 41 54 22 29 - - -
24/11:30am - - - - - WSW 39 52 21 28 - - -
24/11:10am - - - - - WSW 35 54 19 29 - - -
24/11:00am - - - - - WSW 43 56 23 30 - - -
24/10:50am - - - - - WSW 39 57 21 31 - - -
24/10:30am - - - - - WSW 41 56 22 30 - - -
24/10:00am - - - - - WSW 37 48 20 26 - - -
24/09:46am - - - - - WSW 39 57 21 31 - - -
24/09:30am - - - - - WSW 43 56 23 30 - - -
24/09:13am - - - - - WSW 43 61 23 33 - - -
24/09:00am - - - - - WSW 39 54 21 29 - - -
24/08:50am - - - - - WNW 33 54 18 29 - - -
24/08:48am - - - - - NW 33 54 18 29 - - -
24/08:46am - - - - - NW 30 50 16 27 - - -
24/08:30am - - - - - NW 30 35 16 19 - - -
24/08:00am - - - - - NW 30 35 16 19 - - -
24/07:30am - - - - - WNW 30 37 16 20 - - -
24/07:00am - - - - - NW 26 32 14 17 - - -
24/06:30am - - - - - NW 26 30 14 16 - - -
24/06:00am - - - - - NW 26 30 14 16 - - -
24/05:30am - - - - - NW 24 28 13 15 - - -
24/05:00am - - - - - WNW 26 32 14 17 - - -
24/04:30am - - - - - WNW 24 30 13 16 - - -
24/04:00am - - - - - WNW 20 26 11 14 - - -
24/03:30am - - - - - WNW 20 24 11 13 - - -
24/03:00am - - - - - W 20 28 11 15 - - -
24/02:30am - - - - - W 19 22 10 12 - - -
24/02:00am - - - - - W 17 19 9 10 - - -
24/01:30am - - - - - W 13 17 7 9 - - -
24/01:00am - - - - - W 13 17 7 9 - - -
24/12:30am - - - - - WSW 15 20 8 11 - - -
24/12:00am - - - - - WSW 11 13 6 7 - - -
 
Date/Time
CST
Temp
°C
App
Temp
°C
Dew
Point
Rel
Hum
%
Delta-T
°C
Wind Press
QNH
hPa
Press
MSL
hPa
Rain
since 9 am
mm
Dir
 
Spd
km/h
Gust
km/h
Spd
kts
Gust
kts
23/11:30pm - - - - - WSW 13 15 7 8 - - -
23/11:00pm - - - - - WSW 13 17 7 9 - - -
23/10:30pm - - - - - SW 13 17 7 9 - - -
23/10:00pm - - - - - SW 11 15 6 8 - - -
23/09:30pm - - - - - SW 15 19 8 10 - - -
23/09:00pm - - - - - SW 15 19 8 10 - - -
23/08:30pm - - - - - SW 17 22 9 12 - - -
23/08:00pm - - - - - SW 17 22 9 12 - - -
23/07:30pm - - - - - SSW 19 24 10 13 - - -
23/07:00pm - - - - - SSW 20 28 11 15 - - -
23/06:30pm - - - - - SW 20 26 11 14 - - -
23/06:00pm - - - - - SW 17 20 9 11 - - -
23/05:30pm - - - - - SW 17 24 9 13 - - -
23/05:00pm - - - - - SW 19 24 10 13 - - -
23/04:30pm - - - - - WSW 19 22 10 12 - - -
23/04:00pm - - - - - WSW 20 26 11 14 - - -
23/03:30pm - - - - - SW 17 24 9 13 - - -
23/03:00pm - - - - - SW 17 20 9 11 - - -
23/02:30pm - - - - - SW 15 17 8 9 - - -

Other Formats:

Comma delimited format used in spreadsheet applications
http://www.bom.gov.au/fwo/IDS60801/IDS60801.94666.axf

JavaScript Object Notation format (JSON) in row-major order
http://www.bom.gov.au/fwo/IDS60801/IDS60801.94666.json